LFQB 211130Z AUTO 21009KT 9999 OVC015 10/07 Q1019

ElémentsDécodage
LFQB Station météo située sur l'aérodrome de TROYES Barberey
211130Z émis le 21 du mois à 11h30 UTC
AUTO Bulletin édité par un automate
21009KT vent du 210°, 09 noeuds
9999 visibilité horizontale supérieure à 10 Km
OVC015 couverture nuageuse totale (8/8) à 1500 pieds
10/07 température 10°C, point de rosée 07°C
 soit une humidité relative de 82%
Q1019 la pression au niveau de la mer (QNH) est de 1019 hPa